Time;durP1;ratioP1;P1;durP2;ratioP2;P2;SDS_P1;SDS_P2;PMS_P1;PMS_P2;Temp;Humidity;BMP_temperature;BMP_pressure;BME280_temperature;BME280_humidity;BME280_pressure;Samples;Min_cycle;Max_cycle;Signal;HPM_P1;HPM_P2
2023/02/19 00:00:33;;;;;;;1.80;1.20;;;;;;;;;;5111496;28;20490;-42
2023/02/19 00:03:01;;;;;;;1.38;1.13;;;;;;;;;;5111697;28;20024;-40
2023/02/19 00:05:27;;;;;;;1.77;1.20;;;;;;;;;;5110163;28;20027;-38
2023/02/19 00:07:53;;;;;;;1.70;1.20;;;;;;;;;;5111478;28;20024;-41
2023/02/19 00:10:19;;;;;;;1.75;1.20;;;;;;;;;;5110218;28;20032;-38
2023/02/19 00:12:45;;;;;;;2.08;1.40;;;;;;;;;;5111664;28;20024;-38
2023/02/19 00:15:11;;;;;;;1.80;1.27;;;;;;;;;;5112104;28;20030;-39
2023/02/19 00:17:37;;;;;;;2.00;1.30;;;;;;;;;;5111390;28;20041;-35
2023/02/19 00:20:03;;;;;;;1.85;1.30;;;;;;;;;;5111483;28;20032;-42
2023/02/19 00:22:29;;;;;;;1.85;1.23;;;;;;;;;;5111699;28;20392;-40
2023/02/19 00:24:55;;;;;;;1.63;1.15;;;;;;;;;;5111471;28;20436;-41
2023/02/19 00:27:21;;;;;;;1.85;1.30;;;;;;;;;;5111094;28;20031;-42
2023/02/19 00:29:46;;;;;;;2.42;1.50;;;;;;;;;;5111462;28;20503;-42
2023/02/19 00:32:13;;;;;;;1.88;1.23;;;;;;;;;;5111311;28;20058;-38
2023/02/19 00:34:39;;;;;;;1.80;1.20;;;;;;;;;;5115260;28;20489;-41
2023/02/19 00:37:05;;;;;;;1.73;1.20;;;;;;;;;;5115163;27;20512;-42
2023/02/19 00:39:31;;;;;;;1.27;1.10;;;;;;;;;;5115438;28;20063;-39
2023/02/19 00:41:59;;;;;;;1.58;1.48;;;;;;;;;;5115260;28;20081;-42
2023/02/19 00:44:25;;;;;;;1.92;1.20;;;;;;;;;;5115185;28;20558;-42
2023/02/19 00:46:51;;;;;;;1.35;0.98;;;;;;;;;;5113477;28;20031;-40
2023/02/19 00:49:19;;;;;;;2.38;1.45;;;;;;;;;;5114892;28;20492;-38
2023/02/19 00:51:45;;;;;;;2.03;1.42;;;;;;;;;;5114939;28;20098;-42
2023/02/19 00:54:12;;;;;;;1.95;1.20;;;;;;;;;;5115412;28;20070;-39
2023/02/19 00:56:38;;;;;;;2.45;1.33;;;;;;;;;;5114677;28;20444;-41
2023/02/19 00:59:04;;;;;;;1.27;1.10;;;;;;;;;;5114815;28;20055;-38
2023/02/19 01:01:30;;;;;;;1.55;1.20;;;;;;;;;;5114700;28;20020;-42
2023/02/19 01:03:56;;;;;;;1.23;1.10;;;;;;;;;;5114832;28;20023;-40
2023/02/19 01:06:22;;;;;;;1.42;1.17;;;;;;;;;;5115019;28;20485;-40
2023/02/19 01:08:48;;;;;;;1.65;1.30;;;;;;;;;;5114808;28;20057;-42
2023/02/19 01:11:14;;;;;;;1.58;1.05;;;;;;;;;;5114639;28;20027;-41
2023/02/19 01:13:41;;;;;;;1.45;1.10;;;;;;;;;;5114686;28;20076;-42
2023/02/19 01:16:08;;;;;;;1.25;1.02;;;;;;;;;;5114195;28;20039;-42
2023/02/19 01:18:34;;;;;;;1.13;1.00;;;;;;;;;;5114398;28;20023;-39
2023/02/19 01:21:05;;;;;;;1.23;0.80;;;;;;;;;;5114477;27;20492;-41
2023/02/19 01:23:31;;;;;;;1.20;1.00;;;;;;;;;;5114479;28;20031;-40
2023/02/19 01:25:57;;;;;;;1.08;0.98;;;;;;;;;;5114247;28;20351;-42
2023/02/19 01:28:23;;;;;;;1.15;0.95;;;;;;;;;;5112921;28;20509;-42
2023/02/19 01:30:49;;;;;;;0.93;0.80;;;;;;;;;;5114085;28;20465;-41
2023/02/19 01:33:15;;;;;;;1.85;1.02;;;;;;;;;;5114236;28;20023;-41
2023/02/19 01:35:41;;;;;;;1.20;0.90;;;;;;;;;;5114056;28;20023;-39
2023/02/19 01:38:07;;;;;;;1.77;1.25;;;;;;;;;;5114046;28;20415;-41
2023/02/19 01:40:34;;;;;;;1.20;0.93;;;;;;;;;;5114313;28;20510;-40
2023/02/19 01:43:00;;;;;;;2.00;1.00;;;;;;;;;;5113985;28;20077;-40
2023/02/19 01:45:28;;;;;;;0.82;0.80;;;;;;;;;;5113843;28;20020;-39
2023/02/19 01:48:08;;;;;;;1.85;1.05;;;;;;;;;;5113903;28;20023;-42
2023/02/19 01:50:37;;;;;;;1.42;1.00;;;;;;;;;;5113794;28;20040;-39
2023/02/19 01:53:06;;;;;;;1.15;1.00;;;;;;;;;;5114114;28;20031;-42
2023/02/19 01:55:33;;;;;;;1.33;0.95;;;;;;;;;;5113921;28;20023;-38
2023/02/19 01:57:59;;;;;;;1.52;1.17;;;;;;;;;;5113557;28;20514;-41
2023/02/19 02:00:26;;;;;;;1.00;0.88;;;;;;;;;;5113802;28;20039;-42
2023/02/19 02:02:52;;;;;;;1.10;0.90;;;;;;;;;;5113675;28;20027;-42
2023/02/19 02:05:32;;;;;;;1.63;1.10;;;;;;;;;;5113733;28;20028;-41
2023/02/19 02:10:52;;;;;;;1.85;0.90;;;;;;;;;;5104674;28;20134;-40
2023/02/19 02:13:18;;;;;;;1.40;1.00;;;;;;;;;;5113899;28;20099;-41
2023/02/19 02:15:50;;;;;;;1.13;0.80;;;;;;;;;;5113332;27;20027;-38
2023/02/19 02:18:25;;;;;;;1.35;1.10;;;;;;;;;;5113400;28;20030;-40
2023/02/19 02:21:01;;;;;;;0.95;0.80;;;;;;;;;;5113299;28;20100;-39
2023/02/19 02:23:27;;;;;;;0.70;0.70;;;;;;;;;;5113420;28;20112;-39
2023/02/19 02:25:53;;;;;;;1.85;0.90;;;;;;;;;;5113167;28;20023;-41
2023/02/19 02:28:22;;;;;;;1.10;0.90;;;;;;;;;;5113609;28;20031;-42
2023/02/19 02:30:51;;;;;;;1.13;0.90;;;;;;;;;;5113194;28;20038;-36
2023/02/19 02:33:21;;;;;;;1.13;0.90;;;;;;;;;;5113195;28;20089;-41
2023/02/19 02:35:48;;;;;;;1.05;0.80;;;;;;;;;;5111775;28;20019;-42
2023/02/19 02:38:15;;;;;;;1.40;0.90;;;;;;;;;;5113031;28;20035;-39
2023/02/19 02:40:43;;;;;;;1.10;0.88;;;;;;;;;;5112897;28;20028;-39
2023/02/19 02:43:10;;;;;;;1.92;0.82;;;;;;;;;;5112883;28;20019;-42
2023/02/19 02:45:36;;;;;;;1.40;0.90;;;;;;;;;;5112734;28;20103;-39
2023/02/19 02:48:12;;;;;;;1.25;0.98;;;;;;;;;;5112840;28;20389;-41
2023/02/19 02:50:43;;;;;;;1.30;1.00;;;;;;;;;;5112578;28;20031;-41
2023/02/19 02:56:05;;;;;;;1.65;0.82;;;;;;;;;;5112172;28;20557;-37
2023/02/19 02:58:32;;;;;;;0.98;0.88;;;;;;;;;;5112580;28;20020;-37
2023/02/19 03:03:47;;;;;;;1.30;0.90;;;;;;;;;;5112648;28;20111;-39
2023/02/19 03:06:15;;;;;;;1.00;0.80;;;;;;;;;;5112209;28;20016;-40
2023/02/19 03:09:04;;;;;;;0.90;0.80;;;;;;;;;;5112162;28;20052;-40
2023/02/19 03:20:09;;;;;;;1.08;0.82;;;;;;;;;;5112351;28;20507;-42
2023/02/19 03:22:36;;;;;;;1.98;0.82;;;;;;;;;;5112045;28;20039;-39
2023/02/19 03:27:47;;;;;;;;;;;;;;;;;;5112521;28;20500;-41
2023/02/19 03:30:16;;;;;;;0.90;0.80;;;;;;;;;;5112360;28;19908;-42
2023/02/19 03:32:45;;;;;;;1.50;0.90;;;;;;;;;;5112320;28;20023;-42
2023/02/19 03:35:13;;;;;;;1.10;0.80;;;;;;;;;;5112073;28;20057;-42
2023/02/19 03:38:00;;;;;;;0.85;0.77;;;;;;;;;;5111724;28;20023;-42
2023/02/19 03:40:27;;;;;;;0.70;0.60;;;;;;;;;;5112029;28;20038;-40
2023/02/19 03:42:58;;;;;;;1.13;0.80;;;;;;;;;;5112120;28;20389;-40
2023/02/19 03:45:32;;;;;;;0.90;0.80;;;;;;;;;;5111833;28;20035;-42
2023/02/19 03:48:34;;;;;;;1.00;0.70;;;;;;;;;;5111603;28;20119;-38
2023/02/19 03:51:18;;;;;;;1.00;0.80;;;;;;;;;;5068709;28;20071;-40
2023/02/19 03:53:53;;;;;;;0.98;0.70;;;;;;;;;;5107918;28;20059;-42
2023/02/19 03:56:24;;;;;;;1.05;0.73;;;;;;;;;;5111594;28;20490;-40
2023/02/19 03:58:54;;;;;;;1.13;0.75;;;;;;;;;;5111566;28;20032;-41
2023/02/19 04:01:32;;;;;;;1.05;0.80;;;;;;;;;;5111554;28;20040;-42
2023/02/19 04:04:03;;;;;;;0.95;0.85;;;;;;;;;;5111647;28;20038;-41
2023/02/19 04:06:30;;;;;;;2.38;0.60;;;;;;;;;;5111497;28;20478;-39
2023/02/19 04:08:59;;;;;;;1.20;0.90;;;;;;;;;;5115894;28;20031;-41
2023/02/19 04:11:25;;;;;;;0.98;0.68;;;;;;;;;;5114309;28;20026;-41
2023/02/19 04:13:58;;;;;;;0.90;0.70;;;;;;;;;;5115820;28;20015;-36
2023/02/19 04:16:26;;;;;;;1.33;0.80;;;;;;;;;;5115393;27;20020;-37
2023/02/19 04:18:54;;;;;;;1.08;0.65;;;;;;;;;;5114320;28;20031;-41
2023/02/19 04:21:21;;;;;;;0.93;0.70;;;;;;;;;;5115523;28;20027;-38
2023/02/19 04:23:48;;;;;;;1.10;0.85;;;;;;;;;;5115635;27;20035;-42
2023/02/19 04:26:14;;;;;;;0.90;0.60;;;;;;;;;;5115369;28;20404;-39
2023/02/19 04:28:42;;;;;;;0.60;0.50;;;;;;;;;;5115415;28;20034;-37
2023/02/19 04:31:08;;;;;;;0.90;0.80;;;;;;;;;;5115495;28;20043;-40
2023/02/19 04:33:34;;;;;;;0.82;0.70;;;;;;;;;;5115517;28;20031;-37
2023/02/19 04:36:01;;;;;;;1.52;0.82;;;;;;;;;;5113861;28;20484;-37
2023/02/19 04:38:27;;;;;;;0.73;0.65;;;;;;;;;;5115250;28;20477;-38
2023/02/19 04:40:53;;;;;;;0.95;0.70;;;;;;;;;;5115170;27;20030;-39
2023/02/19 04:43:19;;;;;;;1.98;0.60;;;;;;;;;;5115325;28;20660;-37
2023/02/19 04:45:45;;;;;;;1.23;0.80;;;;;;;;;;5115008;28;20102;-36
2023/02/19 04:48:11;;;;;;;0.80;0.60;;;;;;;;;;5115185;28;20103;-36
2023/02/19 04:50:38;;;;;;;0.93;0.68;;;;;;;;;;5115003;28;20454;-36
2023/02/19 04:53:04;;;;;;;0.85;0.60;;;;;;;;;;5115236;28;20042;-41
2023/02/19 04:55:30;;;;;;;0.90;0.80;;;;;;;;;;5114889;28;20020;-40
2023/02/19 04:57:56;;;;;;;0.90;0.70;;;;;;;;;;5114756;27;20079;-41
2023/02/19 05:00:22;;;;;;;0.70;0.60;;;;;;;;;;5113831;28;20401;-38
2023/02/19 05:02:48;;;;;;;0.65;0.63;;;;;;;;;;5113911;28;20110;-41
2023/02/19 05:05:14;;;;;;;1.00;0.60;;;;;;;;;;5113610;28;20081;-41
2023/02/19 05:07:40;;;;;;;0.85;0.60;;;;;;;;;;5113420;28;20032;-40
2023/02/19 05:10:06;;;;;;;0.63;0.60;;;;;;;;;;5113498;28;20027;-39
2023/02/19 05:12:32;;;;;;;0.70;0.50;;;;;;;;;;5113602;28;20144;-41
2023/02/19 05:14:58;;;;;;;1.58;0.60;;;;;;;;;;5113382;28;20076;-39
2023/02/19 05:17:24;;;;;;;0.88;0.60;;;;;;;;;;5112959;28;20030;-37
2023/02/19 05:19:50;;;;;;;1.13;0.80;;;;;;;;;;5113672;28;20381;-40
2023/02/19 05:22:16;;;;;;;0.88;0.70;;;;;;;;;;5113191;28;20106;-38
2023/02/19 05:24:42;;;;;;;0.50;0.50;;;;;;;;;;5113229;28;20034;-37
2023/02/19 05:27:08;;;;;;;0.73;0.55;;;;;;;;;;5111806;28;20026;-38
2023/02/19 05:29:34;;;;;;;0.73;0.50;;;;;;;;;;5113349;28;20023;-41
2023/02/19 05:32:00;;;;;;;0.98;0.50;;;;;;;;;;5113295;28;20490;-40
2023/02/19 05:34:26;;;;;;;0.75;0.60;;;;;;;;;;5113164;28;20062;-41
2023/02/19 05:36:53;;;;;;;0.50;0.40;;;;;;;;;;5111760;28;20076;-42
2023/02/19 05:39:19;;;;;;;1.05;0.60;;;;;;;;;;5112986;28;20092;-40
2023/02/19 05:41:45;;;;;;;0.60;0.50;;;;;;;;;;5112967;28;20028;-39
2023/02/19 05:44:11;;;;;;;0.80;0.60;;;;;;;;;;5112952;28;20489;-39
2023/02/19 05:46:37;;;;;;;0.60;0.50;;;;;;;;;;5112800;28;20074;-38
2023/02/19 05:49:03;;;;;;;0.50;0.45;;;;;;;;;;5112882;28;20032;-40
2023/02/19 05:51:29;;;;;;;0.55;0.50;;;;;;;;;;5112849;28;20228;-42
2023/02/19 05:53:56;;;;;;;0.52;0.50;;;;;;;;;;5112864;28;20389;-40
2023/02/19 05:56:31;;;;;;;0.32;0.32;;;;;;;;;;5112542;28;20020;-40
2023/02/19 05:58:57;;;;;;;0.68;0.50;;;;;;;;;;5074210;28;1095636;-42
2023/02/19 06:01:25;;;;;;;0.98;0.57;;;;;;;;;;5113752;28;20447;-40
2023/02/19 06:03:51;;;;;;;0.50;0.50;;;;;;;;;;5113719;28;20023;-39
2023/02/19 06:06:17;;;;;;;0.40;0.40;;;;;;;;;;5113828;28;20369;-42
2023/02/19 06:08:43;;;;;;;0.73;0.50;;;;;;;;;;5113589;28;20413;-40
2023/02/19 06:11:09;;;;;;;0.50;0.50;;;;;;;;;;5113345;27;20130;-41
2023/02/19 06:13:36;;;;;;;0.45;0.40;;;;;;;;;;5113596;28;20023;-38
2023/02/19 06:16:08;;;;;;;0.50;0.50;;;;;;;;;;5113505;27;20063;-40
2023/02/19 06:18:34;;;;;;;0.60;0.40;;;;;;;;;;5113363;28;20028;-42
2023/02/19 06:21:04;;;;;;;0.77;0.50;;;;;;;;;;5113455;28;20124;-37
2023/02/19 06:23:31;;;;;;;0.38;0.35;;;;;;;;;;5113414;28;20662;-41
2023/02/19 06:26:11;;;;;;;0.32;0.30;;;;;;;;;;5113213;28;20483;-41
2023/02/19 06:28:37;;;;;;;0.45;0.40;;;;;;;;;;5113337;28;20028;-38
2023/02/19 06:31:04;;;;;;;1.15;0.50;;;;;;;;;;5112420;28;20446;-39
2023/02/19 06:33:30;;;;;;;0.68;0.50;;;;;;;;;;5113552;28;20471;-42
2023/02/19 06:36:00;;;;;;;0.32;0.32;;;;;;;;;;5113065;28;20397;-42
2023/02/19 06:38:26;;;;;;;0.40;0.40;;;;;;;;;;5113026;28;20209;-41
2023/02/19 06:40:52;;;;;;;0.57;0.40;;;;;;;;;;5112839;28;20027;-38
2023/02/19 06:43:18;;;;;;;0.68;0.40;;;;;;;;;;5113044;28;20389;-42
2023/02/19 06:45:45;;;;;;;0.55;0.47;;;;;;;;;;5112696;28;20024;-39
2023/02/19 06:48:11;;;;;;;0.70;0.43;;;;;;;;;;5112789;28;20028;-39
2023/02/19 06:50:37;;;;;;;0.63;0.40;;;;;;;;;;5111284;28;20337;-39
2023/02/19 06:53:03;;;;;;;0.50;0.50;;;;;;;;;;5112652;28;20107;-40
2023/02/19 06:55:29;;;;;;;0.47;0.40;;;;;;;;;;5112462;27;20085;-42
2023/02/19 06:57:55;;;;;;;0.65;0.50;;;;;;;;;;5112423;28;20058;-39
2023/02/19 07:00:21;;;;;;;0.40;0.40;;;;;;;;;;5112425;28;20069;-36
2023/02/19 07:02:48;;;;;;;0.40;0.40;;;;;;;;;;5112702;28;20032;-41
2023/02/19 07:05:14;;;;;;;0.95;0.40;;;;;;;;;;5111131;28;20434;-40
2023/02/19 07:07:40;;;;;;;0.52;0.40;;;;;;;;;;5112169;28;20057;-40
2023/02/19 07:10:06;;;;;;;0.50;0.40;;;;;;;;;;5112145;28;20102;-39
2023/02/19 07:12:32;;;;;;;0.35;0.35;;;;;;;;;;5112188;27;20084;-37
2023/02/19 07:14:58;;;;;;;0.47;0.32;;;;;;;;;;5112501;28;20019;-39
2023/02/19 07:17:24;;;;;;;1.60;0.30;;;;;;;;;;5111987;28;20585;-42
2023/02/19 07:19:50;;;;;;;0.47;0.40;;;;;;;;;;5112255;28;20031;-39
2023/02/19 07:22:16;;;;;;;0.47;0.43;;;;;;;;;;5111977;28;20030;-40
2023/02/19 07:24:42;;;;;;;0.82;0.50;;;;;;;;;;5112577;28;20027;-40
2023/02/19 07:27:08;;;;;;;0.88;0.40;;;;;;;;;;5111973;28;20560;-42
2023/02/19 07:29:34;;;;;;;0.70;0.50;;;;;;;;;;5112132;28;20098;-41
2023/02/19 07:32:00;;;;;;;0.70;0.47;;;;;;;;;;5111917;28;20474;-42
2023/02/19 07:34:26;;;;;;;0.90;0.50;;;;;;;;;;5112171;28;20027;-38
2023/02/19 07:36:52;;;;;;;0.70;0.55;;;;;;;;;;5112294;28;20019;-40
2023/02/19 07:39:18;;;;;;;0.50;0.30;;;;;;;;;;5112075;28;20400;-37
2023/02/19 07:41:44;;;;;;;1.15;0.40;;;;;;;;;;5111808;28;20024;-40
2023/02/19 07:44:15;;;;;;;1.20;0.50;;;;;;;;;;5112003;28;20088;-42
2023/02/19 07:46:41;;;;;;;0.50;0.40;;;;;;;;;;5111876;28;20019;-38
2023/02/19 07:49:07;;;;;;;0.60;0.40;;;;;;;;;;5111886;28;20108;-41
2023/02/19 07:51:33;;;;;;;0.45;0.45;;;;;;;;;;5111851;28;20024;-42
2023/02/19 07:53:59;;;;;;;0.40;0.38;;;;;;;;;;5111520;28;20020;-41
2023/02/19 07:56:27;;;;;;;0.45;0.45;;;;;;;;;;5110483;28;20042;-39
2023/02/19 07:58:53;;;;;;;0.52;0.40;;;;;;;;;;5111751;28;20020;-40
2023/02/19 08:02:58;;;;;;;0.68;0.45;;;;;;;;;;5111800;28;20026;-42
2023/02/19 08:04:10;;;;;;;1.00;0.57;;;;;;;;;;5111528;28;20024;-40
2023/02/19 08:06:36;;;;;;;0.38;0.32;;;;;;;;;;5111308;28;20435;-38
2023/02/19 08:09:03;;;;;;;0.60;0.50;;;;;;;;;;5111487;28;20024;-42
2023/02/19 08:14:14;;;;;;;0.82;0.45;;;;;;;;;;5111764;28;20409;-39
2023/02/19 08:16:40;;;;;;;0.30;0.30;;;;;;;;;;5111978;28;20020;-40
2023/02/19 08:19:06;;;;;;;0.60;0.50;;;;;;;;;;5112072;28;20028;-35
2023/02/19 08:21:32;;;;;;;0.38;0.35;;;;;;;;;;5111540;28;20031;-38
2023/02/19 08:23:58;;;;;;;0.60;0.50;;;;;;;;;;5111455;28;20115;-40
2023/02/19 08:26:24;;;;;;;0.65;0.40;;;;;;;;;;5111347;28;20023;-42
2023/02/19 08:28:50;;;;;;;0.40;0.35;;;;;;;;;;5111610;28;20080;-39
2023/02/19 08:31:16;;;;;;;0.30;0.30;;;;;;;;;;5111304;28;20028;-39
2023/02/19 08:33:42;;;;;;;0.40;0.35;;;;;;;;;;5111483;28;20028;-37
2023/02/19 08:36:08;;;;;;;0.60;0.30;;;;;;;;;;5111328;28;20530;-40
2023/02/19 08:38:35;;;;;;;0.73;0.60;;;;;;;;;;5110148;28;20020;-41
2023/02/19 08:41:06;;;;;;;1.00;0.30;;;;;;;;;;5111357;28;20030;-41
2023/02/19 08:43:32;;;;;;;0.30;0.30;;;;;;;;;;5111372;28;20019;-38
2023/02/19 08:45:58;;;;;;;0.40;0.32;;;;;;;;;;5111049;28;20405;-40
2023/02/19 08:48:24;;;;;;;0.40;0.40;;;;;;;;;;5111570;28;20094;-42
2023/02/19 08:50:54;;;;;;;1.10;0.43;;;;;;;;;;5109684;28;20117;-40
2023/02/19 08:53:20;;;;;;;0.50;0.40;;;;;;;;;;5112598;28;20016;-38
2023/02/19 08:55:46;;;;;;;0.50;0.30;;;;;;;;;;5114902;28;20035;-40
2023/02/19 08:58:11;;;;;;;0.40;0.38;;;;;;;;;;5114979;28;20036;-40
2023/02/19 09:00:37;;;;;;;0.75;0.40;;;;;;;;;;5114679;28;20089;-40
2023/02/19 09:03:03;;;;;;;0.50;0.40;;;;;;;;;;5114882;28;20433;-42
2023/02/19 09:05:29;;;;;;;0.88;0.60;;;;;;;;;;5114687;28;20028;-42
2023/02/19 09:07:56;;;;;;;0.60;0.40;;;;;;;;;;5114564;27;20042;-42
2023/02/19 09:10:22;;;;;;;0.30;0.30;;;;;;;;;;5115138;28;20027;-41
2023/02/19 09:12:48;;;;;;;1.38;0.40;;;;;;;;;;5114552;28;20016;-42
2023/02/19 09:15:14;;;;;;;0.50;0.50;;;;;;;;;;5114620;28;20024;-40
2023/02/19 09:17:40;;;;;;;0.60;0.50;;;;;;;;;;5114587;28;20068;-42
2023/02/19 09:20:06;;;;;;;0.50;0.35;;;;;;;;;;5113105;28;20027;-42
2023/02/19 09:22:33;;;;;;;0.88;0.40;;;;;;;;;;5114576;28;20493;-42
2023/02/19 09:24:59;;;;;;;0.88;0.47;;;;;;;;;;5114492;28;20062;-37
2023/02/19 09:27:26;;;;;;;2.22;0.45;;;;;;;;;;5114086;28;20031;-38
2023/02/19 09:29:53;;;;;;;1.30;0.43;;;;;;;;;;5114518;28;20032;-42
2023/02/19 09:32:20;;;;;;;0.22;0.22;;;;;;;;;;5114441;28;20500;-40
2023/02/19 09:34:46;;;;;;;0.73;0.38;;;;;;;;;;5114351;27;20038;-38
2023/02/19 09:37:12;;;;;;;1.55;0.45;;;;;;;;;;5114094;28;20493;-43
2023/02/19 09:39:38;;;;;;;0.60;0.50;;;;;;;;;;5114265;28;20035;-42
2023/02/19 09:42:11;;;;;;;1.38;0.50;;;;;;;;;;5114034;28;20031;-39
2023/02/19 09:44:39;;;;;;;0.65;0.50;;;;;;;;;;5114217;28;20038;-39
2023/02/19 09:47:11;;;;;;;0.60;0.40;;;;;;;;;;5113870;28;20403;-40
2023/02/19 09:49:42;;;;;;;0.80;0.50;;;;;;;;;;5113961;27;20033;-40
2023/02/19 09:52:09;;;;;;;1.05;0.40;;;;;;;;;;5113894;28;20035;-41
2023/02/19 09:54:36;;;;;;;0.40;0.40;;;;;;;;;;5113799;28;20016;-41
2023/02/19 09:57:03;;;;;;;0.45;0.38;;;;;;;;;;5113725;28;20027;-43
2023/02/19 09:59:44;;;;;;;0.70;0.50;;;;;;;;;;5113670;28;20106;-41
2023/02/19 10:02:16;;;;;;;3.28;0.60;;;;;;;;;;5113658;28;20023;-43
2023/02/19 10:04:43;;;;;;;1.23;0.55;;;;;;;;;;5112674;28;20366;-43
2023/02/19 10:07:16;;;;;;;0.88;0.50;;;;;;;;;;5113316;28;20032;-42
2023/02/19 10:09:45;;;;;;;0.70;0.50;;;;;;;;;;5113543;28;20042;-42
2023/02/19 10:12:15;;;;;;;0.82;0.43;;;;;;;;;;5113483;28;20015;-41
2023/02/19 10:14:47;;;;;;;0.70;0.40;;;;;;;;;;5112113;28;20054;-42
2023/02/19 10:17:18;;;;;;;0.68;0.50;;;;;;;;;;5113222;28;20055;-41
2023/02/19 10:19:44;;;;;;;1.55;0.45;;;;;;;;;;5113426;28;20043;-43
2023/02/19 10:22:11;;;;;;;0.80;0.45;;;;;;;;;;5113505;28;20497;-40
2023/02/19 10:24:39;;;;;;;0.40;0.40;;;;;;;;;;5113283;28;20023;-39
2023/02/19 10:27:10;;;;;;;0.70;0.50;;;;;;;;;;5113060;28;20028;-42
2023/02/19 10:29:36;;;;;;;0.35;0.30;;;;;;;;;;5113164;28;20027;-43
2023/02/19 10:32:22;;;;;;;1.00;0.40;;;;;;;;;;5113010;28;20027;-42
2023/02/19 10:34:48;;;;;;;1.13;0.40;;;;;;;;;;5113256;28;20118;-41
2023/02/19 10:37:16;;;;;;;0.95;0.50;;;;;;;;;;5112775;28;20049;-43
2023/02/19 10:39:44;;;;;;;0.98;0.40;;;;;;;;;;5112941;28;20124;-41
2023/02/19 10:42:18;;;;;;;0.60;0.40;;;;;;;;;;5113025;28;20019;-41
2023/02/19 10:44:45;;;;;;;0.52;0.50;;;;;;;;;;5112944;28;20035;-38
2023/02/19 10:47:16;;;;;;;1.08;0.60;;;;;;;;;;5111373;28;20028;-42
2023/02/19 10:49:44;;;;;;;0.82;0.50;;;;;;;;;;5111370;28;20492;-42
2023/02/19 10:52:34;;;;;;;1.58;0.50;;;;;;;;;;5112742;28;20098;-42
2023/02/19 10:55:24;;;;;;;0.70;0.50;;;;;;;;;;5112561;28;20032;-42
2023/02/19 10:57:50;;;;;;;1.17;0.60;;;;;;;;;;5112462;28;20084;-39
2023/02/19 11:00:16;;;;;;;0.63;0.60;;;;;;;;;;5112374;28;20043;-43
2023/02/19 11:02:43;;;;;;;1.05;0.70;;;;;;;;;;5112655;28;20391;-42
2023/02/19 11:05:15;;;;;;;0.98;0.52;;;;;;;;;;5112655;28;20023;-43
2023/02/19 11:07:45;;;;;;;2.28;0.63;;;;;;;;;;5112527;28;20028;-39
2023/02/19 11:10:23;;;;;;;1.30;0.60;;;;;;;;;;5112304;28;20385;-40
2023/02/19 11:12:50;;;;;;;0.82;0.40;;;;;;;;;;5112488;28;20024;-41
2023/02/19 11:15:24;;;;;;;1.45;0.68;;;;;;;;;;5111058;28;20027;-39
2023/02/19 11:18:09;;;;;;;0.60;0.50;;;;;;;;;;5112009;28;20103;-38
2023/02/19 11:20:35;;;;;;;0.77;0.50;;;;;;;;;;5112146;28;20094;-43
2023/02/19 11:23:07;;;;;;;1.45;0.70;;;;;;;;;;5111024;28;20150;-39
2023/02/19 11:25:33;;;;;;;1.20;0.60;;;;;;;;;;5112309;28;20031;-41
2023/02/19 11:28:06;;;;;;;0.60;0.40;;;;;;;;;;5112026;28;20032;-41
2023/02/19 11:30:32;;;;;;;1.38;0.43;;;;;;;;;;5112412;28;20489;-40
2023/02/19 11:33:23;;;;;;;2.42;0.70;;;;;;;;;;5111917;28;20477;-41
2023/02/19 11:35:50;;;;;;;8.65;1.80;;;;;;;;;;5111791;28;20019;-41
2023/02/19 11:38:18;;;;;;;3.83;1.00;;;;;;;;;;5112103;28;20106;-41
2023/02/19 11:40:54;;;;;;;7.63;1.77;;;;;;;;;;5111839;28;20028;-41
2023/02/19 11:43:20;;;;;;;6.63;1.17;;;;;;;;;;5111985;28;20404;-41
2023/02/19 11:46:08;;;;;;;4.05;1.30;;;;;;;;;;5111728;28;20537;-42
2023/02/19 11:48:40;;;;;;;3.25;1.10;;;;;;;;;;5112367;28;20027;-41
2023/02/19 11:51:12;;;;;;;4.50;0.93;;;;;;;;;;5111728;28;20085;-39
2023/02/19 11:53:45;;;;;;;4.53;1.27;;;;;;;;;;5111903;28;20020;-42
2023/02/19 11:56:11;;;;;;;4.07;1.13;;;;;;;;;;5111670;28;20351;-42
2023/02/19 11:58:56;;;;;;;5.90;1.25;;;;;;;;;;5111877;28;20069;-40
2023/02/19 12:01:40;;;;;;;3.08;1.20;;;;;;;;;;5111679;28;20073;-39
2023/02/19 12:04:06;;;;;;;;;;;;;;;;;;5112210;28;20019;-41
2023/02/19 12:06:38;;;;;;;3.95;1.08;;;;;;;;;;5111688;28;19904;-43
2023/02/19 12:09:10;;;;;;;4.03;1.17;;;;;;;;;;5111691;28;20419;-42
2023/02/19 12:11:54;;;;;;;4.65;1.10;;;;;;;;;;5111514;28;20504;-39
2023/02/19 12:14:20;;;;;;;;;;;;;;;;;;5112120;28;20027;-41
2023/02/19 12:16:54;;;;;;;4.40;1.30;;;;;;;;;;5111394;28;19908;-39
2023/02/19 12:19:26;;;;;;;3.97;1.05;;;;;;;;;;5111850;28;20024;-40
2023/02/19 12:22:03;;;;;;;4.00;0.95;;;;;;;;;;5111553;28;20024;-43
2023/02/19 12:24:31;;;;;;;3.58;1.00;;;;;;;;;;5111481;28;20024;-42
2023/02/19 12:26:57;;;;;;;2.55;0.95;;;;;;;;;;5111410;28;20031;-42
2023/02/19 12:29:45;;;;;;;2.28;0.95;;;;;;;;;;5114645;28;20049;-42
2023/02/19 12:32:26;;;;;;;3.50;1.15;;;;;;;;;;5115574;28;20020;-39
2023/02/19 12:34:52;;;;;;;3.53;1.10;;;;;;;;;;5115299;28;20095;-42
2023/02/19 12:37:30;;;;;;;3.45;1.00;;;;;;;;;;5115100;27;20102;-41
2023/02/19 12:39:56;;;;;;;5.72;1.40;;;;;;;;;;5115322;27;20438;-40
2023/02/19 12:42:41;;;;;;;1.92;0.98;;;;;;;;;;5115176;27;20552;-37
2023/02/19 12:45:15;;;;;;;5.35;1.17;;;;;;;;;;5115380;28;20313;-39
2023/02/19 12:47:42;;;;;;;3.90;1.10;;;;;;;;;;5114982;28;20038;-35
2023/02/19 12:50:16;;;;;;;1.63;0.88;;;;;;;;;;5115067;28;20028;-41
2023/02/19 12:52:45;;;;;;;2.45;0.98;;;;;;;;;;5115161;28;20424;-38
2023/02/19 12:55:31;;;;;;;2.05;0.70;;;;;;;;;;5114984;27;20046;-39
2023/02/19 12:58:00;;;;;;;2.75;0.80;;;;;;;;;;5114441;28;20038;-42
2023/02/19 13:00:43;;;;;;;3.33;0.93;;;;;;;;;;5114788;28;20598;-39
2023/02/19 13:03:27;;;;;;;1.27;0.82;;;;;;;;;;5114944;28;20485;-40
2023/02/19 13:05:54;;;;;;;1.05;0.68;;;;;;;;;;5114680;28;20108;-42
2023/02/19 13:08:39;;;;;;;3.47;0.90;;;;;;;;;;5113289;28;20036;-41
2023/02/19 13:11:20;;;;;;;3.20;1.00;;;;;;;;;;5114546;28;20020;-42
2023/02/19 13:13:51;;;;;;;3.05;0.82;;;;;;;;;;5114775;28;20020;-39
2023/02/19 13:16:18;;;;;;;1.70;0.75;;;;;;;;;;5114464;28;20397;-39
2023/02/19 13:18:53;;;;;;;2.85;1.10;;;;;;;;;;5114461;28;20492;-40
2023/02/19 13:24:08;;;;;;;1.42;0.70;;;;;;;;;;5114534;28;20039;-41
2023/02/19 13:26:43;;;;;;;2.38;0.88;;;;;;;;;;5114520;28;20533;-38
2023/02/19 13:29:25;;;;;;;3.00;1.00;;;;;;;;;;5114291;28;20023;-38
2023/02/19 13:32:13;;;;;;;2.85;1.00;;;;;;;;;;5114431;28;20028;-41
2023/02/19 13:34:39;;;;;;;2.30;0.80;;;;;;;;;;5114454;28;20024;-39
2023/02/19 13:37:05;;;;;;;1.80;0.63;;;;;;;;;;5114064;28;20126;-39
2023/02/19 13:39:31;;;;;;;2.67;0.90;;;;;;;;;;5113809;28;20023;-37
2023/02/19 13:41:58;;;;;;;2.08;0.80;;;;;;;;;;5114072;28;20035;-39
2023/02/19 13:44:28;;;;;;;3.35;0.90;;;;;;;;;;5114197;28;20072;-40
2023/02/19 13:46:54;;;;;;;2.33;0.85;;;;;;;;;;5113860;28;20554;-41
2023/02/19 13:49:24;;;;;;;2.22;0.77;;;;;;;;;;5113906;28;20548;-43
2023/02/19 13:51:52;;;;;;;1.92;0.88;;;;;;;;;;5113807;28;20015;-42
2023/02/19 13:54:25;;;;;;;2.67;0.95;;;;;;;;;;5113857;28;20019;-41
2023/02/19 13:57:14;;;;;;;1.43;0.77;;;;;;;;;;5113773;28;20558;-41
2023/02/19 13:59:41;;;;;;;2.10;0.70;;;;;;;;;;5108052;28;20052;-41
2023/02/19 14:02:10;;;;;;;1.42;0.70;;;;;;;;;;5113561;28;20050;-42
2023/02/19 14:04:50;;;;;;;1.30;0.77;;;;;;;;;;5113692;28;20489;-40
2023/02/19 14:07:16;;;;;;;1.77;0.90;;;;;;;;;;5113576;28;20031;-40
2023/02/19 14:09:42;;;;;;;3.33;0.85;;;;;;;;;;5113668;28;20377;-39
2023/02/19 14:12:11;;;;;;;2.50;0.90;;;;;;;;;;5113589;28;20024;-40
2023/02/19 14:14:38;;;;;;;1.42;0.70;;;;;;;;;;5113461;28;20031;-31
2023/02/19 14:17:16;;;;;;;3.05;0.82;;;;;;;;;;5113349;28;20023;-33
2023/02/19 14:19:42;;;;;;;1.77;0.88;;;;;;;;;;5113608;28;20427;-33
2023/02/19 14:22:28;;;;;;;1.33;0.60;;;;;;;;;;5112079;28;20026;-32
2023/02/19 14:24:55;;;;;;;1.42;0.82;;;;;;;;;;5113280;28;20050;-31
2023/02/19 14:27:21;;;;;;;2.05;0.82;;;;;;;;;;5113217;28;20035;-34
2023/02/19 14:29:47;;;;;;;1.65;1.10;;;;;;;;;;5113414;28;20028;-33
2023/02/19 14:32:18;;;;;;;1.50;0.60;;;;;;;;;;5113235;28;20026;-36
2023/02/19 14:34:45;;;;;;;1.80;0.80;;;;;;;;;;5113291;28;20065;-33
2023/02/19 14:37:19;;;;;;;2.15;0.73;;;;;;;;;;5113022;28;20020;-32
2023/02/19 14:39:46;;;;;;;3.80;0.80;;;;;;;;;;5113188;28;20027;-31
2023/02/19 14:42:15;;;;;;;1.50;0.90;;;;;;;;;;5113163;28;20027;-33
2023/02/19 14:44:51;;;;;;;2.15;0.77;;;;;;;;;;5113124;28;20032;-37
2023/02/19 14:47:18;;;;;;;2.42;0.90;;;;;;;;;;5112797;28;20038;-35
2023/02/19 14:49:47;;;;;;;2.55;0.85;;;;;;;;;;5111497;28;20026;-34
2023/02/19 14:52:27;;;;;;;1.48;0.75;;;;;;;;;;5112225;28;20062;-32
2023/02/19 14:54:55;;;;;;;2.55;1.05;;;;;;;;;;5112935;28;20072;-31
2023/02/19 14:57:24;;;;;;;1.70;1.00;;;;;;;;;;5112563;28;20043;-33
2023/02/19 14:59:54;;;;;;;3.72;1.17;;;;;;;;;;5112768;28;20028;-33
2023/02/19 15:02:22;;;;;;;2.85;0.90;;;;;;;;;;5112532;28;20503;-36
2023/02/19 15:04:48;;;;;;;2.85;1.10;;;;;;;;;;5112832;28;20031;-34
2023/02/19 15:07:17;;;;;;;2.53;1.00;;;;;;;;;;5112383;28;20020;-37
2023/02/19 15:09:45;;;;;;;2.90;1.00;;;;;;;;;;5112440;28;20023;-35
2023/02/19 15:12:19;;;;;;;2.50;1.10;;;;;;;;;;5112428;28;20023;-33
2023/02/19 15:14:45;;;;;;;;;;;;;;;;;;5111610;28;20020;-33
2023/02/19 15:17:15;;;;;;;2.47;0.88;;;;;;;;;;5112108;28;19903;-33
2023/02/19 15:19:42;;;;;;;3.13;1.20;;;;;;;;;;5112193;28;20554;-31